createdAt,value
2022-12-28T00:01:19.513Z,3.10
2022-12-28T00:03:47.862Z,3.30
2022-12-28T00:06:16.448Z,2.80
2022-12-28T00:08:44.880Z,3.50
2022-12-28T00:11:20.531Z,3.10
2022-12-28T00:13:56.382Z,2.40
2022-12-28T00:16:26.129Z,3.30
2022-12-28T00:18:55.070Z,2.70
2022-12-28T00:21:23.337Z,3.10
2022-12-28T00:23:52.679Z,3.00
2022-12-28T00:26:21.024Z,2.70
2022-12-28T00:28:49.497Z,2.10
2022-12-28T00:31:17.772Z,2.10
2022-12-28T00:33:47.069Z,2.60
2022-12-28T00:36:16.004Z,2.60
2022-12-28T00:38:44.351Z,1.80
2022-12-28T00:41:12.473Z,1.60
2022-12-28T00:43:44.906Z,1.90
2022-12-28T00:46:13.440Z,1.70
2022-12-28T00:48:41.522Z,1.60
2022-12-28T00:51:12.306Z,1.80
2022-12-28T00:53:40.414Z,1.60
2022-12-28T00:56:13.006Z,1.70
2022-12-28T00:58:41.607Z,2.00
2022-12-28T01:01:20.449Z,2.00
2022-12-28T01:03:48.832Z,1.50
2022-12-28T01:06:18.445Z,1.70
2022-12-28T01:08:46.525Z,1.40
2022-12-28T01:11:17.622Z,1.90
2022-12-28T01:13:45.700Z,1.60
2022-12-28T01:16:15.515Z,1.80
2022-12-28T01:18:44.524Z,2.10
2022-12-28T01:21:17.865Z,2.80
2022-12-28T01:23:47.106Z,2.60
2022-12-28T01:26:15.303Z,2.50
2022-12-28T01:28:43.494Z,2.50
2022-12-28T01:31:15.664Z,1.50
2022-12-28T01:33:44.280Z,1.40
2022-12-28T01:36:23.233Z,2.10
2022-12-28T01:38:55.631Z,1.90
2022-12-28T01:41:26.499Z,1.70
2022-12-28T01:43:54.508Z,1.40
2022-12-28T01:46:28.769Z,1.60
2022-12-28T01:49:00.963Z,2.00
2022-12-28T01:51:30.587Z,1.70
2022-12-28T01:54:01.063Z,1.50
2022-12-28T01:56:29.449Z,1.40
2022-12-28T01:58:58.775Z,2.60
2022-12-28T02:01:27.213Z,3.00
2022-12-28T02:03:56.933Z,2.20
2022-12-28T02:06:26.293Z,2.60
2022-12-28T02:09:15.870Z,2.20
2022-12-28T02:11:44.375Z,2.60
2022-12-28T02:14:13.687Z,2.40
2022-12-28T02:16:43.892Z,3.10
2022-12-28T02:19:14.019Z,2.50
2022-12-28T02:21:46.518Z,2.30
2022-12-28T02:24:32.848Z,2.60
2022-12-28T02:27:19.181Z,2.70
2022-12-28T02:30:02.127Z,2.80
2022-12-28T02:32:49.052Z,2.70
2022-12-28T02:35:19.612Z,2.80
2022-12-28T02:37:54.318Z,2.10
2022-12-28T02:40:26.534Z,2.30
2022-12-28T02:42:54.988Z,1.90
2022-12-28T02:45:48.448Z,2.50
2022-12-28T02:48:35.091Z,2.50
2022-12-28T02:51:23.294Z,2.40
2022-12-28T02:54:11.615Z,2.50
2022-12-28T02:56:39.689Z,2.00
2022-12-28T02:59:26.642Z,2.40
2022-12-28T03:02:14.753Z,2.50
2022-12-28T03:05:01.747Z,2.40
2022-12-28T03:08:14.481Z,2.40
2022-12-28T03:10:50.105Z,2.40
2022-12-28T03:13:43.145Z,2.20
2022-12-28T03:16:33.850Z,2.60
2022-12-28T03:19:25.475Z,2.40
2022-12-28T03:22:14.835Z,2.60
2022-12-28T03:25:03.244Z,2.80
2022-12-28T03:27:51.822Z,2.40
2022-12-28T03:30:41.241Z,5.10
2022-12-28T03:33:11.105Z,4.10
2022-12-28T03:35:40.899Z,4.10
2022-12-28T03:38:12.389Z,3.90
2022-12-28T03:40:52.881Z,4.60
2022-12-28T03:43:43.033Z,4.20
2022-12-28T03:46:24.561Z,3.70
2022-12-28T03:48:53.309Z,3.50
2022-12-28T03:51:23.105Z,3.40
2022-12-28T03:53:51.834Z,2.40
2022-12-28T03:56:22.754Z,3.10
2022-12-28T03:58:51.237Z,3.20
2022-12-28T04:01:20.904Z,2.40
2022-12-28T04:03:49.365Z,2.90
2022-12-28T04:06:18.611Z,2.40
2022-12-28T04:08:47.256Z,3.20
2022-12-28T04:11:15.674Z,2.60
2022-12-28T04:13:46.158Z,2.80
2022-12-28T04:16:16.729Z,2.80
2022-12-28T04:18:45.416Z,2.30
2022-12-28T04:21:14.663Z,2.70
2022-12-28T04:23:44.895Z,2.40
2022-12-28T04:26:22.630Z,2.50
2022-12-28T04:28:53.291Z,3.00
2022-12-28T04:31:24.462Z,2.90
2022-12-28T04:34:00.270Z,2.30
2022-12-28T04:36:30.128Z,2.70
2022-12-28T04:38:59.880Z,2.70
2022-12-28T04:41:27.921Z,2.60
2022-12-28T04:43:56.226Z,2.60
2022-12-28T04:46:25.117Z,2.50
2022-12-28T04:48:53.437Z,2.50
2022-12-28T04:51:25.488Z,2.50
2022-12-28T04:53:54.005Z,3.50
2022-12-28T04:56:22.727Z,2.80
2022-12-28T04:58:57.950Z,3.70
2022-12-28T05:01:26.555Z,3.00
2022-12-28T05:03:58.077Z,2.70
2022-12-28T05:06:29.600Z,5.40
2022-12-28T05:08:58.151Z,5.70
2022-12-28T05:11:28.105Z,8.30
2022-12-28T05:13:56.653Z,9.10
2022-12-28T05:16:25.597Z,8.70
2022-12-28T05:18:54.889Z,11.50
2022-12-28T05:21:24.206Z,10.00
2022-12-28T05:23:52.680Z,10.00
2022-12-28T05:26:22.254Z,11.70
2022-12-28T05:28:50.543Z,7.70
2022-12-28T05:31:20.227Z,4.50
2022-12-28T05:33:48.340Z,5.00
2022-12-28T05:36:18.185Z,3.90
2022-12-28T05:38:46.820Z,2.70
2022-12-28T05:41:19.502Z,3.50
2022-12-28T05:43:47.778Z,3.20
2022-12-28T05:46:17.325Z,3.40
2022-12-28T05:48:45.820Z,3.70
2022-12-28T05:51:15.931Z,3.80
2022-12-28T05:53:44.451Z,3.90
2022-12-28T05:56:14.644Z,3.50
2022-12-28T05:58:43.888Z,3.30
2022-12-28T06:01:13.509Z,3.00
2022-12-28T06:03:42.093Z,2.60
2022-12-28T06:06:11.753Z,2.20
2022-12-28T06:08:40.405Z,2.90
2022-12-28T06:11:09.709Z,3.00
2022-12-28T06:13:38.239Z,3.30
2022-12-28T06:16:26.619Z,4.80
2022-12-28T06:18:54.954Z,4.30
2022-12-28T06:21:24.526Z,4.10
2022-12-28T06:23:52.692Z,3.10
2022-12-28T06:26:21.738Z,2.90
2022-12-28T06:28:50.235Z,2.90
2022-12-28T06:31:20.585Z,3.20
2022-12-28T06:33:49.399Z,3.30
2022-12-28T06:36:21.550Z,3.20
2022-12-28T06:38:50.378Z,3.20
2022-12-28T06:41:19.244Z,3.90
2022-12-28T06:43:47.756Z,4.20
2022-12-28T06:46:16.507Z,8.10
2022-12-28T06:48:44.735Z,11.00
2022-12-28T06:51:26.824Z,10.00
2022-12-28T06:53:55.260Z,8.60
2022-12-28T06:56:27.586Z,8.50
2022-12-28T06:59:02.471Z,5.70
2022-12-28T07:01:36.474Z,4.60
2022-12-28T07:04:05.389Z,3.70
2022-12-28T07:06:38.160Z,4.00
2022-12-28T07:09:07.699Z,3.50
2022-12-28T07:11:36.462Z,2.80
2022-12-28T07:14:04.906Z,3.70
2022-12-28T07:19:00.259Z,3.30
2022-12-28T07:21:30.055Z,3.20
2022-12-28T07:23:58.195Z,2.90
2022-12-28T07:26:28.495Z,3.20
2022-12-28T07:28:57.529Z,3.20
2022-12-28T07:31:30.360Z,2.80
2022-12-28T07:33:59.744Z,3.40
2022-12-28T07:36:29.103Z,3.50
2022-12-28T07:38:57.540Z,3.10
2022-12-28T07:41:30.239Z,3.40
2022-12-28T07:44:00.054Z,2.80
2022-12-28T07:46:32.438Z,3.50
2022-12-28T07:49:01.410Z,3.60
2022-12-28T07:51:31.117Z,3.10
2022-12-28T07:53:59.872Z,3.40
2022-12-28T07:56:30.084Z,3.20
2022-12-28T07:58:59.562Z,3.10
2022-12-28T08:01:32.633Z,3.40
2022-12-28T08:04:02.663Z,4.00
2022-12-28T08:06:33.125Z,4.00
2022-12-28T08:09:01.634Z,4.30
2022-12-28T08:11:31.260Z,5.20
2022-12-28T08:13:59.927Z,5.10
2022-12-28T08:16:30.344Z,4.30
2022-12-28T08:18:58.697Z,5.00
2022-12-28T08:21:28.645Z,4.50
2022-12-28T08:23:57.222Z,3.80
2022-12-28T08:26:26.446Z,4.10
2022-12-28T08:28:56.319Z,3.30
2022-12-28T08:31:26.318Z,3.60
2022-12-28T08:33:55.380Z,4.10
2022-12-28T08:36:23.874Z,4.70
2022-12-28T08:38:52.020Z,4.60
2022-12-28T08:41:21.846Z,3.20
2022-12-28T08:43:50.459Z,3.30
2022-12-28T08:46:20.063Z,3.60
2022-12-28T08:48:48.939Z,4.50
2022-12-28T08:51:21.295Z,32.10
2022-12-28T08:53:49.718Z,9.10
2022-12-28T08:56:19.372Z,4.70
2022-12-28T08:58:48.258Z,11.60
2022-12-28T09:01:17.772Z,4.90
2022-12-28T09:03:47.287Z,5.90
2022-12-28T09:06:18.100Z,4.70
2022-12-28T09:09:04.757Z,5.50
2022-12-28T09:11:35.093Z,9.10
2022-12-28T09:14:04.506Z,7.90
2022-12-28T09:16:32.794Z,7.10
2022-12-28T09:19:01.712Z,6.20
2022-12-28T09:21:31.207Z,5.80
2022-12-28T09:23:59.269Z,5.60
2022-12-28T09:26:29.528Z,7.90
2022-12-28T09:28:58.939Z,7.30
2022-12-28T09:31:28.419Z,5.70
2022-12-28T09:36:49.053Z,2.50
2022-12-28T09:39:18.228Z,3.30
2022-12-28T09:41:49.715Z,3.10
2022-12-28T09:44:31.342Z,3.40
2022-12-28T09:47:05.412Z,3.50
2022-12-28T09:49:40.131Z,4.00
2022-12-28T09:52:14.299Z,3.40
2022-12-28T09:54:42.599Z,3.00
2022-12-28T09:57:13.898Z,3.30
2022-12-28T09:59:42.185Z,3.90
2022-12-28T10:02:30.581Z,3.10
2022-12-28T10:04:58.800Z,3.50
2022-12-28T10:07:27.022Z,3.30
2022-12-28T10:09:55.321Z,3.60
2022-12-28T10:12:24.789Z,3.00
2022-12-28T10:14:53.793Z,3.50
2022-12-28T10:17:25.118Z,2.90
2022-12-28T10:19:55.070Z,2.50
2022-12-28T10:22:25.054Z,2.90
2022-12-28T10:24:54.052Z,3.00
2022-12-28T10:27:25.965Z,2.20
2022-12-28T10:29:54.883Z,2.90
2022-12-28T10:32:22.899Z,2.80
2022-12-28T10:34:59.065Z,5.40
2022-12-28T10:37:29.572Z,2.10
2022-12-28T10:40:06.769Z,3.20
2022-12-28T10:42:34.792Z,5.40
2022-12-28T10:45:07.282Z,3.60
2022-12-28T10:47:43.187Z,5.40
2022-12-28T10:50:37.872Z,3.60
2022-12-28T10:53:16.372Z,3.30
2022-12-28T10:55:46.309Z,3.30
2022-12-28T10:58:30.317Z,3.30
2022-12-28T11:01:00.907Z,3.70
2022-12-28T11:03:31.602Z,3.70
2022-12-28T11:06:09.551Z,3.50
2022-12-28T11:08:38.315Z,2.40
2022-12-28T11:11:07.185Z,3.20
2022-12-28T11:13:35.537Z,20.80
2022-12-28T11:16:08.184Z,8.00
2022-12-28T11:18:38.100Z,7.00
2022-12-28T11:21:10.141Z,3.40
2022-12-28T11:23:38.267Z,4.20
2022-12-28T11:26:10.402Z,3.30
2022-12-28T11:28:40.603Z,4.40
2022-12-28T11:31:13.461Z,2.50
2022-12-28T11:33:43.266Z,5.10
2022-12-28T11:36:21.807Z,5.80
2022-12-28T11:38:51.253Z,2.90
2022-12-28T11:41:19.387Z,4.30
2022-12-28T11:43:55.093Z,12.10
2022-12-28T11:46:23.293Z,2.10
2022-12-28T11:49:02.351Z,5.90
2022-12-28T11:51:36.956Z,5.40
2022-12-28T11:54:07.827Z,3.60
2022-12-28T11:56:44.785Z,2.70
2022-12-28T11:59:23.041Z,2.10
2022-12-28T12:01:52.089Z,16.90
2022-12-28T12:04:28.970Z,7.80
2022-12-28T12:07:01.640Z,5.20
2022-12-28T12:09:38.668Z,9.70
2022-12-28T12:12:15.927Z,2.20
2022-12-28T12:14:47.742Z,1.10
2022-12-28T12:17:34.758Z,1.00
2022-12-28T12:20:17.702Z,0.80
2022-12-28T12:22:49.198Z,2.20
2022-12-28T12:25:23.778Z,0.90
2022-12-28T12:27:57.466Z,1.20
2022-12-28T12:30:25.979Z,1.40
2022-12-28T12:33:05.281Z,2.60
2022-12-28T12:35:38.810Z,2.40
2022-12-28T12:38:26.077Z,2.00
2022-12-28T12:40:57.461Z,1.80
2022-12-28T12:43:54.946Z,1.30
2022-12-28T12:46:44.353Z,1.60
2022-12-28T12:49:27.798Z,1.50
2022-12-28T12:51:59.011Z,1.30
2022-12-28T12:54:30.068Z,2.80
2022-12-28T12:56:58.171Z,1.80
2022-12-28T12:59:41.235Z,1.60
2022-12-28T13:02:12.145Z,1.50
2022-12-28T13:04:41.447Z,1.10
2022-12-28T13:07:17.145Z,0.70
2022-12-28T13:09:45.203Z,1.50
2022-12-28T13:12:15.995Z,1.30
2022-12-28T13:14:45.111Z,0.90
2022-12-28T13:17:16.964Z,1.50
2022-12-28T13:19:45.612Z,1.50
2022-12-28T13:22:33.351Z,1.70
2022-12-28T13:25:01.418Z,1.60
2022-12-28T13:27:35.370Z,1.20
2022-12-28T13:32:38.456Z,1.30
2022-12-28T13:35:17.601Z,1.20
2022-12-28T13:37:58.546Z,1.60
2022-12-28T13:40:26.618Z,1.20
2022-12-28T13:43:06.191Z,1.10
2022-12-28T13:45:34.617Z,1.50
2022-12-28T13:48:02.820Z,1.70
2022-12-28T13:50:32.483Z,2.00
2022-12-28T13:53:07.269Z,1.30
2022-12-28T13:55:39.415Z,1.60
2022-12-28T13:58:18.824Z,1.80
2022-12-28T14:00:48.137Z,2.50
2022-12-28T14:03:16.669Z,1.20
2022-12-28T14:05:47.707Z,2.60
2022-12-28T14:08:16.179Z,3.70
2022-12-28T14:10:46.235Z,5.60
2022-12-28T14:13:17.481Z,5.10
2022-12-28T14:15:46.266Z,5.10
2022-12-28T14:18:15.266Z,5.10
2022-12-28T14:20:50.540Z,4.80
2022-12-28T14:23:19.455Z,4.50
2022-12-28T14:25:47.711Z,4.00
2022-12-28T14:28:21.773Z,3.50
2022-12-28T14:33:24.871Z,10.10
2022-12-28T14:36:00.975Z,22.20
2022-12-28T14:38:33.277Z,18.10
2022-12-28T14:41:03.130Z,10.50
2022-12-28T14:43:32.851Z,13.30
2022-12-28T14:46:20.609Z,19.00
2022-12-28T14:48:48.633Z,20.80
2022-12-28T14:51:17.625Z,19.00
2022-12-28T14:53:45.927Z,21.00
2022-12-28T14:56:16.371Z,27.90
2022-12-28T15:01:40.483Z,94.40
2022-12-28T15:04:24.296Z,43.90
2022-12-28T15:06:52.332Z,33.20
2022-12-28T15:09:21.188Z,26.30
2022-12-28T15:11:49.311Z,28.60
2022-12-28T15:14:17.357Z,67.30
2022-12-28T15:16:45.740Z,42.20
2022-12-28T15:19:13.857Z,32.40
2022-12-28T15:21:41.886Z,34.10
2022-12-28T15:24:10.131Z,31.50
2022-12-28T15:26:38.165Z,24.10
2022-12-28T15:29:06.348Z,33.40
2022-12-28T15:31:34.764Z,27.40
2022-12-28T15:34:02.791Z,34.30
2022-12-28T15:36:30.977Z,21.30
2022-12-28T15:38:59.943Z,22.10
2022-12-28T15:41:47.842Z,29.00
2022-12-28T15:44:17.639Z,26.30
2022-12-28T15:46:46.777Z,22.60
2022-12-28T15:49:14.803Z,17.10
2022-12-28T15:51:43.183Z,5.20
2022-12-28T15:54:11.789Z,10.80
2022-12-28T15:56:40.895Z,17.40
2022-12-28T15:59:15.008Z,19.10
2022-12-28T16:04:11.541Z,19.60
2022-12-28T16:06:44.179Z,23.50
2022-12-28T16:09:13.748Z,16.30
2022-12-28T16:11:42.078Z,12.70
2022-12-28T16:14:14.659Z,12.60
2022-12-28T16:16:43.919Z,14.60
2022-12-28T16:19:13.389Z,12.60
2022-12-28T16:21:41.914Z,11.10
2022-12-28T16:24:10.578Z,8.30
2022-12-28T16:26:38.619Z,12.10
2022-12-28T16:29:06.798Z,7.70
2022-12-28T16:31:36.623Z,8.60
2022-12-28T16:34:15.177Z,12.90
2022-12-28T16:36:45.276Z,10.60
2022-12-28T16:39:15.642Z,16.40
2022-12-28T16:41:43.988Z,24.10
2022-12-28T16:44:17.146Z,19.50
2022-12-28T16:46:45.344Z,12.90
2022-12-28T16:49:13.833Z,15.30
2022-12-28T16:51:44.051Z,21.90
2022-12-28T16:54:22.952Z,19.40
2022-12-28T16:56:51.889Z,18.30
2022-12-28T16:59:21.651Z,10.20
2022-12-28T17:01:50.273Z,2.90
2022-12-28T17:04:18.881Z,15.50
2022-12-28T17:06:51.016Z,14.90
2022-12-28T17:09:19.661Z,9.80
2022-12-28T17:11:48.705Z,10.00
2022-12-28T17:14:29.311Z,12.20
2022-12-28T17:17:04.939Z,16.20
2022-12-28T17:19:33.047Z,13.10
2022-12-28T17:22:01.132Z,12.90
2022-12-28T17:24:29.255Z,13.60
2022-12-28T17:27:01.668Z,11.50
2022-12-28T17:29:33.506Z,8.80
2022-12-28T17:32:01.658Z,8.70
2022-12-28T17:34:29.839Z,9.20
2022-12-28T17:36:57.952Z,7.60
2022-12-28T17:39:26.005Z,9.20
2022-12-28T17:41:53.964Z,7.30
2022-12-28T17:44:22.128Z,8.20
2022-12-28T17:46:50.163Z,9.30
2022-12-28T17:49:18.241Z,9.40
2022-12-28T17:51:46.505Z,10.70
2022-12-28T17:54:15.884Z,10.50
2022-12-28T17:56:44.087Z,4.10
2022-12-28T17:59:16.306Z,8.70
2022-12-28T18:01:44.693Z,10.50
2022-12-28T18:04:13.060Z,9.00
2022-12-28T18:06:41.136Z,9.60
2022-12-28T18:09:09.220Z,9.00
2022-12-28T18:11:37.140Z,8.80
2022-12-28T18:14:06.634Z,8.80
2022-12-28T18:16:34.695Z,7.00
2022-12-28T18:19:03.014Z,10.50
2022-12-28T18:21:31.050Z,8.70
2022-12-28T18:23:59.041Z,8.70
2022-12-28T18:26:27.478Z,10.40
2022-12-28T18:28:56.182Z,10.30
2022-12-28T18:31:25.299Z,8.70
2022-12-28T18:33:53.584Z,5.70
2022-12-28T18:36:21.690Z,6.50
2022-12-28T18:38:49.887Z,8.70
2022-12-28T18:41:19.036Z,9.10
2022-12-28T18:43:47.921Z,14.60
2022-12-28T18:46:16.476Z,10.10
2022-12-28T18:48:44.673Z,9.40
2022-12-28T18:51:13.973Z,8.80
2022-12-28T18:53:41.973Z,11.60
2022-12-28T18:56:14.191Z,12.60
2022-12-28T18:58:42.732Z,11.50
2022-12-28T19:04:03.547Z,17.80
2022-12-28T19:06:33.093Z,10.60
2022-12-28T19:09:01.750Z,6.40
2022-12-28T19:11:30.202Z,10.30
2022-12-28T19:13:58.527Z,7.60
2022-12-28T19:16:31.158Z,9.30
2022-12-28T19:19:00.617Z,9.50
2022-12-28T19:21:33.444Z,3.60
2022-12-28T19:24:07.124Z,6.70
2022-12-28T19:26:35.769Z,5.20
2022-12-28T19:29:04.279Z,6.60
2022-12-28T19:31:32.974Z,5.80
2022-12-28T19:34:01.098Z,6.60
2022-12-28T19:36:29.235Z,7.50
2022-12-28T19:38:57.619Z,6.90
2022-12-28T19:41:25.739Z,4.90
2022-12-28T19:43:53.829Z,5.50
2022-12-28T19:46:24.890Z,5.80
2022-12-28T19:48:53.632Z,5.90
2022-12-28T19:51:27.075Z,6.40
2022-12-28T19:53:58.422Z,6.30
2022-12-28T19:56:26.438Z,5.10
2022-12-28T19:59:01.248Z,5.60
2022-12-28T20:01:34.021Z,5.70
2022-12-28T20:04:05.749Z,5.10
2022-12-28T20:06:39.793Z,5.70
2022-12-28T20:09:07.914Z,7.20
2022-12-28T20:11:36.408Z,5.80
2022-12-28T20:14:04.603Z,5.20
2022-12-28T20:16:33.422Z,5.50
2022-12-28T20:19:02.112Z,5.90
2022-12-28T20:21:30.589Z,7.30
2022-12-28T20:24:00.807Z,6.90
2022-12-28T20:26:29.571Z,8.80
2022-12-28T20:28:58.650Z,7.90
2022-12-28T20:31:27.531Z,6.80
2022-12-28T20:33:55.837Z,8.60
2022-12-28T20:36:27.780Z,10.40
2022-12-28T20:38:56.177Z,10.40
2022-12-28T20:41:47.189Z,11.20
2022-12-28T20:44:16.814Z,6.60
2022-12-28T20:46:45.343Z,8.30
2022-12-28T20:49:13.478Z,10.50
2022-12-28T20:51:42.690Z,7.50
2022-12-28T20:54:11.127Z,7.10
2022-12-28T20:56:41.950Z,12.10
2022-12-28T20:59:10.840Z,12.80
2022-12-28T21:01:39.466Z,10.40
2022-12-28T21:04:08.043Z,9.20
2022-12-28T21:06:36.157Z,11.80
2022-12-28T21:09:04.326Z,9.70
2022-12-28T21:11:33.438Z,10.50
2022-12-28T21:14:01.721Z,7.70
2022-12-28T21:16:30.012Z,9.10
2022-12-28T21:18:58.132Z,9.60
2022-12-28T21:21:26.247Z,8.10
2022-12-28T21:23:54.334Z,7.00
2022-12-28T21:26:22.533Z,6.70
2022-12-28T21:28:51.515Z,8.50
2022-12-28T21:31:19.633Z,7.10
2022-12-28T21:33:47.796Z,7.20
2022-12-28T21:36:15.895Z,10.00
2022-12-28T21:38:45.345Z,12.50
2022-12-28T21:41:14.801Z,11.70
2022-12-28T21:43:42.907Z,7.40
2022-12-28T21:46:12.966Z,8.20
2022-12-28T21:48:41.615Z,7.80
2022-12-28T21:51:31.436Z,11.70
2022-12-28T21:54:00.429Z,11.70
2022-12-28T21:56:29.051Z,9.60
2022-12-28T21:58:58.060Z,9.00
2022-12-28T22:01:45.457Z,8.30
2022-12-28T22:04:34.076Z,9.20
2022-12-28T22:07:02.645Z,7.50
2022-12-28T22:09:49.453Z,8.10
2022-12-28T22:12:36.250Z,7.30
2022-12-28T22:15:23.347Z,8.50
2022-12-28T22:17:56.073Z,8.30
2022-12-28T22:20:24.351Z,7.60
2022-12-28T22:22:54.907Z,7.20
2022-12-28T22:25:23.395Z,7.40
2022-12-28T22:27:51.519Z,8.30
2022-12-28T22:30:19.613Z,8.10
2022-12-28T22:32:47.676Z,7.20
2022-12-28T22:35:15.714Z,8.40
2022-12-28T22:37:43.990Z,8.10
2022-12-28T22:40:12.704Z,6.30
2022-12-28T22:42:42.400Z,6.10
2022-12-28T22:45:11.580Z,6.10
2022-12-28T22:47:39.980Z,9.30
2022-12-28T22:50:09.430Z,18.60
2022-12-28T22:52:37.623Z,9.30
2022-12-28T22:55:06.147Z,10.70
2022-12-28T22:57:34.536Z,8.60
2022-12-28T23:00:03.477Z,8.40
2022-12-28T23:02:31.838Z,8.90
2022-12-28T23:05:00.225Z,7.50
2022-12-28T23:07:28.357Z,8.70
2022-12-28T23:09:56.402Z,6.50
2022-12-28T23:12:24.554Z,9.00
2022-12-28T23:15:11.455Z,7.60
2022-12-28T23:17:39.640Z,6.70
2022-12-28T23:20:26.624Z,8.80
2022-12-28T23:23:13.709Z,5.30
2022-12-28T23:26:00.558Z,6.40
2022-12-28T23:28:28.876Z,6.60
2022-12-28T23:30:57.119Z,5.80
2022-12-28T23:33:25.561Z,5.90
2022-12-28T23:35:54.101Z,5.00
2022-12-28T23:38:22.146Z,5.90
2022-12-28T23:41:10.171Z,7.40
2022-12-28T23:43:38.191Z,7.40
2022-12-28T23:46:06.605Z,6.70
2022-12-28T23:48:34.935Z,6.50
2022-12-28T23:51:08.436Z,5.40
2022-12-28T23:53:36.764Z,6.40
2022-12-28T23:56:05.051Z,7.30
2022-12-28T23:58:33.153Z,6.00
